Time;durP1;ratioP1;P1;durP2;ratioP2;P2;SDS_P1;SDS_P2;PMS_P1;PMS_P2;Temp;Humidity;BMP_temperature;BMP_pressure;BME280_temperature;BME280_humidity;BME280_pressure;Samples;Min_cycle;Max_cycle;Signal;HPM_P1;HPM_P2
2022/05/20 00:01:16;;;;;;;6.70;2.10;;;;;;;11.82;52.43;99558.13;4484387;32;20466;-70
2022/05/20 00:03:45;;;;;;;4.78;2.05;;;;;;;11.79;52.33;99559.22;4484467;31;20166;-70
2022/05/20 00:06:12;;;;;;;3.72;1.92;;;;;;;11.79;52.41;99553.97;4484367;31;20127;-70
2022/05/20 00:08:39;;;;;;;4.85;1.67;;;;;;;11.79;52.39;99555.75;4484102;31;20118;-70
2022/05/20 00:11:07;;;;;;;5.43;1.65;;;;;;;11.76;52.35;99551.59;4484174;31;20123;-70
2022/05/20 00:13:34;;;;;;;3.17;1.83;;;;;;;11.69;52.47;99551.28;4484092;31;20096;-70
2022/05/20 00:16:01;;;;;;;4.12;1.85;;;;;;;11.67;52.50;99542.69;4484086;31;20085;-70
2022/05/20 00:18:28;;;;;;;2.75;1.87;;;;;;;11.65;52.59;99539.34;4482794;32;20150;-70
2022/05/20 00:20:57;;;;;;;5.75;1.75;;;;;;;11.60;52.64;99540.69;4484025;32;20119;-70
2022/05/20 00:23:25;;;;;;;5.55;2.10;;;;;;;11.55;53.08;99546.28;4484223;31;20534;-70
2022/05/20 00:25:53;;;;;;;4.15;1.85;;;;;;;11.52;53.34;99547.41;4483733;32;20154;-70
2022/05/20 00:28:26;;;;;;;2.85;1.77;;;;;;;11.47;53.30;99541.66;4483940;31;20430;-70
2022/05/20 00:30:55;;;;;;;3.35;1.80;;;;;;;11.42;53.41;99537.78;4483935;31;20092;-70
2022/05/20 00:33:23;;;;;;;2.83;1.65;;;;;;;11.34;54.27;99535.75;4483820;31;20507;-70
2022/05/20 00:35:50;;;;;;;2.37;1.62;;;;;;;11.29;54.55;99535.28;4482515;32;20100;-70
2022/05/20 00:38:17;;;;;;;3.53;1.85;;;;;;;11.24;53.95;99537.44;4484036;31;20179;-70
2022/05/20 00:40:46;;;;;;;4.37;1.77;;;;;;;11.24;53.80;99535.66;4483689;31;20088;-70
2022/05/20 00:43:29;;;;;;;2.50;1.65;;;;;;;11.27;53.68;99534.59;4483849;31;20080;-70
2022/05/20 00:46:00;;;;;;;5.30;2.03;;;;;;;11.26;54.22;99546.03;4484077;32;20100;-70
2022/05/20 00:48:28;;;;;;;1.55;1.12;;;;;;;11.26;53.77;99548.63;4483828;31;20080;-70
2022/05/20 00:51:07;;;;;;;4.43;1.67;;;;;;;11.37;52.69;99551.25;4483693;31;20101;-70
2022/05/20 00:53:39;;;;;;;2.15;1.42;;;;;;;11.46;52.39;99545.28;4483739;31;20076;-70
2022/05/20 00:56:09;;;;;;;3.80;1.60;;;;;;;11.44;52.59;99547.16;4483361;31;20085;-70
2022/05/20 00:58:36;;;;;;;2.45;1.80;;;;;;;11.43;52.48;99549.91;4482229;32;20108;-70
2022/05/20 01:01:04;;;;;;;4.12;1.70;;;;;;;11.38;52.64;99545.03;4483681;31;20089;-70
2022/05/20 01:03:31;;;;;;;3.10;1.70;;;;;;;11.34;52.97;99538.38;4483481;31;20092;-70
2022/05/20 01:05:59;;;;;;;2.90;1.50;;;;;;;11.28;53.25;99538.84;4484166;32;20097;-70
2022/05/20 01:08:32;;;;;;;2.53;1.62;;;;;;;11.22;53.51;99540.19;4485949;31;20438;-70
2022/05/20 01:11:00;;;;;;;3.08;1.60;;;;;;;11.19;53.65;99537.81;4485745;31;20097;-70
2022/05/20 01:13:28;;;;;;;3.80;1.50;;;;;;;11.15;53.83;99537.22;4485874;31;20084;-70
2022/05/20 01:15:55;;;;;;;5.22;1.60;;;;;;;11.15;54.16;99542.47;4484390;32;20100;-70
2022/05/20 01:18:23;;;;;;;3.97;1.70;;;;;;;11.11;53.64;99546.31;4485822;32;20433;-70
2022/05/20 01:20:54;;;;;;;3.35;1.85;;;;;;;11.06;54.47;99537.94;4484349;32;20118;-70
2022/05/20 01:23:24;;;;;;;2.70;1.73;;;;;;;11.02;55.14;99536.50;4485913;31;20107;-70
2022/05/20 01:25:54;;;;;;;4.45;1.87;;;;;;;10.96;54.96;99534.38;4485529;32;20096;-70
2022/05/20 01:28:23;;;;;;;3.00;1.50;;;;;;;10.92;55.18;99531.16;4484418;32;20475;-70
2022/05/20 01:31:12;;;;;;;3.15;2.22;;;;;;;10.93;55.15;99534.63;4485786;31;20092;-70
2022/05/20 01:33:43;;;;;;;2.47;1.80;;;;;;;10.97;55.88;99528.19;4485888;31;20141;-70
2022/05/20 01:36:14;;;;;;;3.33;1.98;;;;;;;10.95;56.46;99535.34;4486043;31;20579;-70
2022/05/20 01:38:42;;;;;;;5.10;2.00;;;;;;;10.93;57.33;99535.47;4485921;31;20080;-70
2022/05/20 01:41:32;;;;;;;2.00;1.70;;;;;;;10.85;58.34;99534.41;4485685;31;20115;-70
2022/05/20 01:44:02;;;;;;;3.35;2.03;;;;;;;10.75;58.41;99531.62;4485837;31;20112;-70
2022/05/20 01:46:44;;;;;;;5.43;2.15;;;;;;;10.61;59.56;99523.09;4485526;31;20092;-70
2022/05/20 01:49:19;;;;;;;4.43;2.17;;;;;;;10.53;59.72;99522.81;4484490;32;20159;-70
2022/05/20 01:52:12;;;;;;;7.12;2.33;;;;;;;10.46;59.94;99514.63;4485666;31;20092;-70
2022/05/20 01:54:48;;;;;;;4.07;2.00;;;;;;;10.45;59.73;99515.56;4484414;32;20552;-70
2022/05/20 01:57:49;;;;;;;3.80;1.87;;;;;;;10.52;59.47;99507.22;4485414;31;20172;-70
2022/05/20 02:00:20;;;;;;;5.47;2.10;;;;;;;10.51;60.59;99505.56;4475350;32;20625;-70
2022/05/20 02:02:57;;;;;;;4.62;1.60;;;;;;;10.37;61.32;99501.38;4484449;32;20470;-70
2022/05/20 02:05:50;;;;;;;6.30;1.83;;;;;;;10.26;61.41;99508.22;4485424;31;20157;-70
2022/05/20 02:08:31;;;;;;;3.60;2.30;;;;;;;10.23;61.11;99502.41;4408542;32;20109;-70
2022/05/20 02:11:02;;;;;;;2.85;1.70;;;;;;;10.24;60.95;99507.53;4408403;32;20116;-70
2022/05/20 02:13:31;;;;;;;2.90;1.73;;;;;;;10.18;61.56;99500.13;4408536;32;20133;-70
2022/05/20 02:16:07;;;;;;;5.03;1.70;;;;;;;10.21;60.11;99504.31;4408522;32;20090;-70
2022/05/20 02:18:42;;;;;;;4.45;2.10;;;;;;;10.34;59.28;99507.72;4421167;32;20110;-70
2022/05/20 02:21:12;;;;;;;2.17;1.92;;;;;;;10.33;59.95;99500.78;4408408;32;20124;-70
2022/05/20 02:23:45;;;;;;;2.80;1.87;;;;;;;10.26;61.02;99502.19;4421072;32;20168;-70
2022/05/20 02:26:17;;;;;;;3.08;1.55;;;;;;;10.19;61.34;99500.97;4407908;32;20102;-70
2022/05/20 02:28:54;;;;;;;3.33;2.00;;;;;;;10.09;62.00;99504.28;4408435;32;20185;-70
2022/05/20 02:31:35;;;;;;;5.75;2.00;;;;;;;10.00;62.53;99504.16;4408314;32;20102;-72
2022/05/20 02:34:03;;;;;;;8.13;1.70;;;;;;;9.90;63.61;99504.00;4408369;32;20160;-72
2022/05/20 02:36:34;;;;;;;2.47;1.60;;;;;;;9.80;63.83;99506.47;4408421;32;20093;-72
2022/05/20 02:39:04;;;;;;;2.53;1.60;;;;;;;9.79;64.06;99509.22;4421249;32;20131;-72
2022/05/20 02:41:31;;;;;;;4.82;2.25;;;;;;;9.73;64.17;99494.78;4420628;32;20113;-72
2022/05/20 02:43:59;;;;;;;4.57;1.70;;;;;;;9.72;64.50;99496.56;4421029;32;20102;-72
2022/05/20 02:46:26;;;;;;;5.47;1.98;;;;;;;9.75;63.87;99498.16;4480549;32;20131;-72
2022/05/20 02:48:53;;;;;;;4.87;1.87;;;;;;;9.76;64.02;99492.78;4485381;32;20166;-72
2022/05/20 02:51:21;;;;;;;6.85;2.00;;;;;;;9.79;64.04;99488.28;4485319;31;20554;-72
2022/05/20 02:53:48;;;;;;;7.40;2.17;;;;;;;9.83;62.85;99480.06;4485621;31;20084;-72
2022/05/20 02:56:16;;;;;;;6.80;2.03;;;;;;;9.95;62.61;99487.00;4485202;32;20085;-72
2022/05/20 03:04:15;;;;;;;3.72;2.20;;;;;;;10.10;62.22;99481.56;4485342;32;20100;-72
2022/05/20 03:06:48;;;;;;;6.28;2.72;;;;;;;10.18;60.85;99471.34;4485385;31;20508;-72
2022/05/20 03:09:24;;;;;;;5.12;1.70;;;;;;;10.29;58.87;99479.22;4485233;31;20115;-72
2022/05/20 03:11:52;;;;;;;3.33;2.00;;;;;;;10.63;56.69;99473.19;4485321;32;20113;-72
2022/05/20 03:14:20;;;;;;;5.62;2.17;;;;;;;10.74;56.81;99475.78;4485148;31;20496;-72
2022/05/20 03:16:49;;;;;;;3.90;2.15;;;;;;;10.72;57.25;99482.94;4484912;31;20118;-72
2022/05/20 03:19:17;;;;;;;3.60;2.50;;;;;;;10.75;56.73;99466.13;4485378;32;20116;-72
2022/05/20 03:21:44;;;;;;;4.28;2.37;;;;;;;10.77;56.48;99472.91;4484666;31;20624;-72
2022/05/20 03:24:12;;;;;;;5.70;2.30;;;;;;;10.87;56.11;99474.81;4485166;31;20107;-72
2022/05/20 03:26:40;;;;;;;3.95;2.47;;;;;;;10.96;56.04;99476.69;4484486;31;20144;-72
2022/05/20 03:29:07;;;;;;;6.55;2.50;;;;;;;11.01;55.85;99477.19;4484458;31;20489;-72
2022/05/20 03:31:36;;;;;;;5.55;2.90;;;;;;;11.06;55.94;99482.87;4484871;31;20821;-72
2022/05/20 03:34:05;;;;;;;5.05;2.03;;;;;;;11.18;55.21;99471.41;4485222;31;20160;-72
2022/05/20 03:36:34;;;;;;;6.40;2.28;;;;;;;11.34;55.08;99471.00;4484868;31;20428;-72
2022/05/20 03:39:02;;;;;;;12.02;2.25;;;;;;;11.41;54.67;99466.09;4484862;31;20092;-72
2022/05/20 03:41:30;;;;;;;4.22;1.85;;;;;;;11.50;54.58;99475.81;4484754;31;20092;-72
2022/05/20 03:44:02;;;;;;;2.30;1.77;;;;;;;11.57;54.99;99473.53;4484921;31;20117;-72
2022/05/20 03:46:31;;;;;;;3.12;2.12;;;;;;;11.66;54.04;99477.22;4484782;32;20097;-72
2022/05/20 03:48:59;;;;;;;3.28;2.35;;;;;;;11.76;54.01;99472.84;4484642;31;20115;-72
2022/05/20 03:51:27;;;;;;;6.00;1.70;;;;;;;11.90;54.53;99487.47;4484975;31;20169;-72
2022/05/20 03:53:54;;;;;;;4.05;2.03;;;;;;;12.04;55.08;99481.09;4484675;31;20116;-72
2022/05/20 03:56:21;;;;;;;2.47;1.50;;;;;;;12.18;53.93;99487.81;4484516;32;20512;-72
2022/05/20 03:58:48;;;;;;;2.97;1.75;;;;;;;12.28;53.72;99482.59;4484196;32;20119;-72
2022/05/20 04:04:02;;;;;;;3.55;2.05;;;;;;;12.56;52.48;99476.63;4484800;31;20088;-72
2022/05/20 04:06:29;;;;;;;2.70;1.70;;;;;;;12.73;53.22;99479.59;4484609;31;20123;-72
2022/05/20 04:08:56;;;;;;;11.60;2.20;;;;;;;12.90;53.20;99473.72;4484049;31;20470;-72
2022/05/20 04:11:26;;;;;;;4.18;1.83;;;;;;;13.05;53.09;99475.94;4484524;32;20127;-72
2022/05/20 04:13:53;;;;;;;4.62;2.20;;;;;;;13.21;51.43;99475.44;4483200;32;20088;-72
2022/05/20 04:16:20;;;;;;;3.10;1.77;;;;;;;13.35;50.78;99482.13;4484390;31;20528;-72
2022/05/20 04:18:47;;;;;;;6.95;2.20;;;;;;;13.55;50.23;99473.28;4483925;32;20131;-72
2022/05/20 04:21:15;;;;;;;2.62;1.80;;;;;;;13.75;49.62;99479.34;4484280;32;20092;-72
2022/05/20 04:23:42;;;;;;;2.22;1.50;;;;;;;13.93;49.77;99490.00;4484143;32;20097;-70
2022/05/20 04:26:10;;;;;;;4.43;1.60;;;;;;;14.20;49.14;99480.50;4482986;31;20434;-70
2022/05/20 04:28:38;;;;;;;5.75;1.95;;;;;;;14.46;49.27;99472.81;4483425;31;20474;-71
2022/05/20 04:31:07;;;;;;;8.63;2.28;;;;;;;14.79;52.71;99467.13;4483704;31;20160;-71
2022/05/20 04:33:35;;;;;;;8.77;2.30;;;;;;;15.05;51.03;99477.84;4483622;31;20089;-71
2022/05/20 04:36:04;;;;;;;4.25;2.00;;;;;;;15.27;50.29;99485.28;4482062;31;20149;-71
2022/05/20 04:38:31;;;;;;;10.88;3.25;;;;;;;15.46;51.28;99485.31;4482095;31;20089;-71
2022/05/20 04:47:13;;;;;;;15.10;3.62;;;;;;;15.64;49.04;99480.03;4478493;31;20156;-71
2022/05/20 04:49:21;;;;;;;12.85;2.22;;;;;;;15.77;50.21;99469.91;4473713;31;20092;-71
2022/05/20 04:51:48;;;;;;;17.77;2.62;;;;;;;15.68;50.30;99474.28;4483358;32;20611;-71
2022/05/20 04:57:02;;;;;;;16.85;2.78;;;;;;;15.80;48.79;99472.28;4478994;32;20581;-71
2022/05/20 04:59:34;;;;;;;10.98;2.80;;;;;;;15.88;48.44;99479.41;4484948;31;20100;-71
2022/05/20 05:02:01;;;;;;;6.68;3.40;;;;;;;15.94;48.75;99478.81;4472671;31;20115;-71
2022/05/20 05:04:29;;;;;;;9.15;4.70;;;;;;;16.07;47.50;99481.88;4476962;32;20277;-71
2022/05/20 05:06:56;;;;;;;12.63;4.62;;;;;;;16.15;48.19;99475.81;4479503;31;20788;-71
2022/05/20 05:09:24;;;;;;;9.10;4.25;;;;;;;16.32;47.56;99493.44;4479823;31;20108;-71
2022/05/20 05:11:52;;;;;;;9.55;4.57;;;;;;;16.49;46.23;99491.72;4486494;31;20552;-71
2022/05/20 05:14:20;;;;;;;7.78;5.80;;;;;;;16.63;44.99;99492.94;4480960;31;20109;-71
2022/05/20 05:16:47;;;;;;;9.55;5.78;;;;;;;16.59;45.14;99493.41;4484546;32;20108;-71
2022/05/20 05:19:14;;;;;;;14.77;5.80;;;;;;;16.75;44.85;99497.97;4479612;32;20116;-71
2022/05/20 05:21:41;;;;;;;7.32;5.30;;;;;;;16.79;44.68;99504.56;4477883;31;20116;-71
2022/05/20 05:24:09;;;;;;;12.82;6.05;;;;;;;16.76;44.96;99495.16;4480932;31;20537;-71
2022/05/20 05:26:37;;;;;;;28.92;7.72;;;;;;;16.77;45.18;99494.16;4480196;31;20092;-71
2022/05/20 05:29:04;;;;;;;16.75;7.35;;;;;;;16.90;44.40;99495.56;4482050;31;20634;-71
2022/05/20 05:31:31;;;;;;;10.48;6.90;;;;;;;16.83;43.78;99485.56;4482267;32;20112;-72
2022/05/20 05:33:59;;;;;;;14.40;8.15;;;;;;;17.07;44.03;99480.56;4479846;31;20085;-71
2022/05/20 05:36:26;;;;;;;9.23;5.62;;;;;;;17.14;43.72;99481.59;4479998;31;20130;-71
2022/05/20 05:38:53;;;;;;;8.07;5.80;;;;;;;17.11;42.65;99471.28;4483952;32;20709;-71
2022/05/20 05:41:21;;;;;;;8.70;3.65;;;;;;;17.26;40.98;99468.84;4482608;32;20130;-71
2022/05/20 05:43:48;;;;;;;8.77;3.25;;;;;;;17.25;43.17;99475.16;4481714;32;20117;-71
2022/05/20 05:46:15;;;;;;;3.90;2.47;;;;;;;17.38;42.12;99475.47;4481502;31;20126;-72
2022/05/20 05:48:43;;;;;;;7.40;2.42;;;;;;;17.40;41.45;99478.81;4482823;31;20267;-72
2022/05/20 05:51:11;;;;;;;4.57;2.15;;;;;;;17.28;42.05;99480.13;4484800;31;20093;-72
2022/05/20 05:53:38;;;;;;;3.30;2.33;;;;;;;17.46;41.19;99479.97;4481363;31;20116;-73
2022/05/20 05:56:06;;;;;;;5.93;3.42;;;;;;;17.45;42.39;99476.47;4483189;32;20476;-73
2022/05/20 05:58:33;;;;;;;5.93;2.72;;;;;;;17.56;41.28;99484.13;4476903;31;20101;-73
2022/05/20 06:01:02;;;;;;;4.25;2.15;;;;;;;17.61;41.21;99477.47;4481701;32;20496;-73
2022/05/20 06:03:30;;;;;;;8.30;2.03;;;;;;;17.72;41.99;99471.88;4482787;31;20092;-73
2022/05/20 06:05:57;;;;;;;4.00;2.03;;;;;;;17.96;42.24;99470.22;4479101;32;20096;-73
2022/05/20 06:08:24;;;;;;;4.65;2.50;;;;;;;18.40;40.39;99467.97;4480368;31;20109;-73
2022/05/20 06:10:59;;;;;;;4.47;2.45;;;;;;;18.80;42.93;99470.62;4480078;31;20123;-73
2022/05/20 06:13:29;;;;;;;7.90;3.33;;;;;;;19.00;40.83;99472.91;4477630;31;20157;-73
2022/05/20 06:15:56;;;;;;;6.85;3.47;;;;;;;19.16;40.86;99472.81;4477376;32;20105;-72
2022/05/20 06:18:25;;;;;;;11.93;4.03;;;;;;;19.62;41.04;99477.28;4482591;32;20093;-73
2022/05/20 06:20:52;;;;;;;5.80;2.37;;;;;;;19.95;41.51;99466.41;4481946;31;20544;-75
2022/05/20 06:23:19;;;;;;;8.88;2.42;;;;;;;20.12;39.06;99469.72;4478620;32;20093;-73
2022/05/20 06:25:46;;;;;;;11.60;3.05;;;;;;;20.39;40.54;99466.47;4482872;32;20142;-73
2022/05/20 06:28:34;;;;;;;6.90;2.45;;;;;;;20.55;39.68;99473.41;4481514;31;20150;-73
2022/05/20 06:31:05;;;;;;;12.75;2.62;;;;;;;20.71;38.52;99474.25;4482517;32;20212;-73
2022/05/20 06:33:33;;;;;;;6.47;2.83;;;;;;;20.49;39.65;99468.03;4480661;32;20093;-72
2022/05/20 06:41:31;;;;;;;5.68;2.25;;;;;;;19.22;41.68;99466.78;4480868;32;20111;-73
2022/05/20 06:43:59;;;;;;;5.87;2.33;;;;;;;18.98;42.04;99475.72;4476860;32;20125;-72
2022/05/20 06:46:26;;;;;;;13.40;3.65;;;;;;;18.88;42.44;99478.59;4477431;32;20108;-72
2022/05/20 06:49:00;;;;;;;4.07;2.35;;;;;;;18.77;43.90;99476.28;4481931;31;20157;-73
2022/05/20 06:51:33;;;;;;;7.07;2.33;;;;;;;19.03;44.49;99475.19;4482452;31;20426;-73
2022/05/20 06:54:02;;;;;;;6.03;2.70;;;;;;;19.09;44.68;99488.63;4482181;32;21900;-72
2022/05/20 06:56:30;;;;;;;4.65;1.75;;;;;;;19.32;45.06;99479.84;4481477;31;20108;-73
2022/05/20 06:58:59;;;;;;;5.40;2.30;;;;;;;19.63;42.25;99478.97;4483994;32;20104;-73
2022/05/20 07:01:27;;;;;;;3.67;2.08;;;;;;;19.85;43.13;99478.13;4482343;32;20151;-73
2022/05/20 07:03:54;;;;;;;4.10;1.98;;;;;;;19.78;40.62;99485.16;4474663;31;20088;-74
2022/05/20 07:06:23;;;;;;;3.97;1.87;;;;;;;19.82;43.09;99486.47;4481188;31;20105;-76
2022/05/20 07:08:51;;;;;;;5.53;2.05;;;;;;;20.14;40.55;99489.84;4478287;31;20100;-73
2022/05/20 07:11:23;;;;;;;3.47;1.80;;;;;;;20.12;39.90;99491.00;4480381;32;20374;-74
2022/05/20 07:13:54;;;;;;;6.50;2.10;;;;;;;20.08;38.94;99497.72;4483845;31;20096;-73
2022/05/20 07:16:23;;;;;;;4.53;2.37;;;;;;;20.19;38.76;99490.09;4482395;32;20115;-75
2022/05/20 07:18:51;;;;;;;2.50;1.70;;;;;;;20.21;38.23;99495.25;4481887;31;20159;-74
2022/05/20 07:21:19;;;;;;;6.62;3.12;;;;;;;20.16;38.56;99489.66;4481067;32;20884;-75
2022/05/20 07:23:46;;;;;;;4.07;1.80;;;;;;;20.14;38.31;99489.84;4480038;31;20163;-74
2022/05/20 07:26:16;;;;;;;3.97;2.10;;;;;;;20.12;39.83;99493.69;4479654;32;20723;-76
2022/05/20 07:28:44;;;;;;;6.20;2.20;;;;;;;20.35;39.89;99496.28;4480199;31;20134;-75
2022/05/20 07:31:12;;;;;;;4.85;2.00;;;;;;;20.37;39.86;99500.41;4479343;32;20157;-74
2022/05/20 07:33:39;;;;;;;6.97;2.22;;;;;;;20.27;39.82;99502.50;4480043;32;20190;-74
2022/05/20 07:36:07;;;;;;;5.68;2.40;;;;;;;20.15;39.13;99498.63;4481414;32;20115;-72
2022/05/20 07:38:34;;;;;;;7.20;3.00;;;;;;;20.23;39.53;99495.91;4482159;32;20104;-74
2022/05/20 07:41:02;;;;;;;9.15;2.37;;;;;;;20.29;40.53;99497.03;4480564;32;20859;-74
2022/05/20 07:43:29;;;;;;;3.28;2.20;;;;;;;20.24;38.81;99499.38;4480064;31;20092;-73
2022/05/20 07:45:56;;;;;;;8.30;2.20;;;;;;;20.22;39.89;99504.87;4480395;31;20104;-74
2022/05/20 07:48:24;;;;;;;5.65;2.05;;;;;;;20.41;40.30;99508.00;4477173;32;21162;-73
2022/05/20 07:50:55;;;;;;;5.93;2.15;;;;;;;20.30;40.34;99496.00;4471839;32;20096;-74
2022/05/20 07:53:33;;;;;;;4.72;1.98;;;;;;;20.63;42.72;99499.13;4475959;31;20088;-74
2022/05/20 07:56:13;;;;;;;3.20;1.80;;;;;;;20.73;39.29;99501.53;4482216;32;20144;-74
2022/05/20 07:58:44;;;;;;;6.25;2.05;;;;;;;20.84;39.15;99484.25;4477324;32;20100;-74
2022/05/20 08:01:21;;;;;;;6.95;2.15;;;;;;;20.94;39.80;99483.97;4477004;32;20118;-73
2022/05/20 08:06:40;;;;;;;6.53;2.08;;;;;;;21.21;41.20;99488.59;4481111;32;20132;-73
2022/05/20 08:09:09;;;;;;;8.13;1.90;;;;;;;21.33;39.67;99486.22;4481447;31;20108;-73
2022/05/20 08:11:36;;;;;;;6.22;1.87;;;;;;;21.49;37.60;99479.03;4481432;32;20139;-73
2022/05/20 08:14:03;;;;;;;5.37;1.98;;;;;;;21.53;38.34;99478.47;4479451;31;20081;-73
2022/05/20 08:16:30;;;;;;;5.15;1.80;;;;;;;21.80;38.67;99474.19;4480376;31;20126;-73
2022/05/20 08:18:58;;;;;;;11.55;1.83;;;;;;;22.04;37.91;99480.13;4481458;31;20515;-73
2022/05/20 08:21:25;;;;;;;4.05;1.55;;;;;;;22.23;37.82;99480.47;4481722;31;20158;-73
2022/05/20 08:23:52;;;;;;;4.62;1.90;;;;;;;22.47;39.83;99480.00;4478833;32;20182;-73
2022/05/20 08:26:20;;;;;;;2.95;2.00;;;;;;;22.65;35.96;99465.28;4479643;31;20127;-73
2022/05/20 08:28:48;;;;;;;6.65;2.72;;;;;;;22.67;37.51;99471.28;4482268;31;20093;-73
2022/05/20 08:31:15;;;;;;;4.57;1.67;;;;;;;22.72;38.79;99474.16;4478995;32;20122;-73
2022/05/20 08:33:43;;;;;;;3.95;1.90;;;;;;;22.89;36.77;99469.28;4480376;32;20119;-72
2022/05/20 08:36:10;;;;;;;4.05;1.98;;;;;;;23.04;37.23;99472.66;4479239;32;20084;-73
2022/05/20 08:38:38;;;;;;;3.80;1.95;;;;;;;23.19;35.14;99474.34;4480096;31;20184;-72
2022/05/20 08:41:05;;;;;;;4.37;1.85;;;;;;;22.93;37.13;99464.41;4482518;31;20153;-73
2022/05/20 08:43:34;;;;;;;7.32;2.03;;;;;;;22.51;34.93;99456.41;4482983;31;20135;-72
2022/05/20 08:46:02;;;;;;;6.00;2.47;;;;;;;22.91;40.56;99458.41;4480420;32;20104;-72
2022/05/20 08:48:29;;;;;;;8.68;2.40;;;;;;;23.24;37.70;99452.37;4482855;32;20403;-72
2022/05/20 08:50:57;;;;;;;14.45;2.10;;;;;;;23.27;38.82;99450.13;4483808;31;21181;-73
2022/05/20 08:53:41;;;;;;;5.72;1.92;;;;;;;23.58;37.31;99439.88;4479590;31;20160;-73
2022/05/20 08:56:12;;;;;;;3.62;1.60;;;;;;;23.73;35.91;99453.84;4479190;32;20092;-73
2022/05/20 08:58:46;;;;;;;8.77;1.80;;;;;;;23.89;37.90;99437.41;4478282;32;20129;-73
2022/05/20 09:01:13;;;;;;;6.75;1.83;;;;;;;23.88;35.92;99443.78;4481005;32;20138;-73
2022/05/20 09:03:42;;;;;;;3.62;1.95;;;;;;;23.99;35.34;99431.63;4482479;32;20197;-73
2022/05/20 09:06:12;;;;;;;3.97;2.10;;;;;;;23.84;35.25;99426.47;4483589;31;20104;-74
2022/05/20 09:08:39;;;;;;;8.57;2.12;;;;;;;23.85;36.01;99432.69;4479941;31;20113;-74
2022/05/20 09:11:13;;;;;;;3.22;2.12;;;;;;;23.99;35.47;99422.78;4479205;31;20147;-75
2022/05/20 09:16:29;;;;;;;7.07;2.05;;;;;;;24.09;37.43;99415.97;4481563;32;20104;-75
2022/05/20 09:19:05;;;;;;;5.60;1.95;;;;;;;24.37;36.79;99416.72;4480584;31;20122;-74
2022/05/20 09:21:35;;;;;;;9.27;2.08;;;;;;;24.31;34.86;99417.56;4477683;32;20507;-73
2022/05/20 09:24:05;;;;;;;4.03;1.52;;;;;;;24.21;36.05;99423.34;4474990;31;20118;-74
2022/05/20 09:26:38;;;;;;;2.78;1.90;;;;;;;24.08;37.86;99416.19;4480109;31;20119;-74
2022/05/20 09:29:10;;;;;;;4.07;2.10;;;;;;;24.39;37.33;99406.59;4482425;31;20120;-74
2022/05/20 09:32:03;;;;;;;2.85;1.92;;;;;;;24.48;37.28;99408.00;4478770;32;20119;-74
2022/05/20 09:34:35;;;;;;;3.92;2.00;;;;;;;24.70;35.02;99405.06;4477782;32;20135;-74
2022/05/20 09:37:13;;;;;;;8.05;2.00;;;;;;;24.58;35.07;99396.88;4473531;31;20141;-74
2022/05/20 09:39:42;;;;;;;7.50;2.37;;;;;;;24.47;34.38;99395.66;4475215;31;20167;-74
2022/05/20 09:42:13;;;;;;;3.12;2.08;;;;;;;24.61;35.39;99399.94;4477062;32;20097;-74
2022/05/20 09:44:43;;;;;;;5.50;1.80;;;;;;;24.66;35.05;99403.84;4477760;32;20136;-74
2022/05/20 09:47:29;;;;;;;6.35;2.22;;;;;;;24.67;34.88;99402.81;4478828;32;20551;-73
2022/05/20 09:50:03;;;;;;;12.63;3.05;;;;;;;24.78;37.47;99411.00;4479599;31;20184;-73
2022/05/20 09:52:40;;;;;;;3.42;2.08;;;;;;;24.98;36.78;99408.22;4482994;31;20100;-74
2022/05/20 09:55:10;;;;;;;3.92;2.17;;;;;;;25.19;36.43;99411.56;4484377;32;20115;-73
2022/05/20 09:57:45;;;;;;;4.07;2.25;;;;;;;25.11;35.38;99411.84;4484326;32;20477;-72
2022/05/20 10:00:19;;;;;;;6.65;2.05;;;;;;;25.26;38.54;99412.34;4483855;31;20116;-75
2022/05/20 10:02:46;;;;;;;4.03;2.20;;;;;;;25.38;35.87;99409.81;4481138;31;20126;-73
2022/05/20 10:05:33;;;;;;;5.47;2.80;;;;;;;25.07;36.06;99403.44;4484123;31;20638;-73
2022/05/20 10:08:10;;;;;;;5.43;2.05;;;;;;;25.11;33.72;99393.06;4481034;31;20115;-72
2022/05/20 10:10:46;;;;;;;3.50;2.37;;;;;;;24.89;36.56;99393.44;4484486;31;20130;-73
2022/05/20 10:13:43;;;;;;;22.73;3.87;;;;;;;24.86;36.05;99393.03;4481531;32;20503;-73
2022/05/20 10:16:36;;;;;;;5.47;2.67;;;;;;;25.37;37.32;99384.03;4422846;32;20117;-73
2022/05/20 10:19:15;;;;;;;5.05;2.35;;;;;;;25.19;34.39;99379.41;4419874;32;20113;-74
2022/05/20 10:22:03;;;;;;;3.05;2.03;;;;;;;25.29;34.00;99382.44;4417710;32;20873;-72
2022/05/20 10:24:30;;;;;;;6.28;2.53;;;;;;;25.41;34.29;99374.53;4400508;32;20254;-73
2022/05/20 10:27:04;;;;;;;3.28;2.35;;;;;;;25.55;34.15;99371.72;4419933;32;20116;-73
2022/05/20 10:32:49;;;;;;;5.57;2.30;;;;;;;26.03;35.25;99376.44;4409305;32;20606;-74
2022/05/20 10:35:21;;;;;;;14.87;2.78;;;;;;;26.35;33.94;99368.22;4416707;32;20519;-74
2022/05/20 10:38:10;;;;;;;5.15;2.53;;;;;;;26.33;35.90;99373.81;4421124;32;20144;-72
2022/05/20 10:41:19;;;;;;;5.05;2.37;;;;;;;26.69;32.94;99377.53;4414838;32;20106;-73
2022/05/20 10:49:40;;;;;;;11.82;2.40;;;;;;;26.82;33.37;99367.63;4418398;32;20143;-71
2022/05/20 10:52:20;;;;;;;4.93;2.78;;;;;;;27.06;32.88;99366.63;4416746;31;20089;-73
2022/05/20 10:55:09;;;;;;;4.18;2.10;;;;;;;26.81;33.62;99358.72;4475177;31;20748;-73
2022/05/20 10:57:46;;;;;;;8.65;2.22;;;;;;;26.60;32.11;99365.41;4480636;31;20100;-73
2022/05/20 11:00:14;;;;;;;4.32;2.53;;;;;;;26.48;32.90;99360.00;4475983;32;20139;-73
2022/05/20 11:03:19;;;;;;;3.95;2.58;;;;;;;26.39;32.75;99353.28;4478344;31;20106;-73
2022/05/20 11:06:16;;;;;;;4.03;2.92;;;;;;;26.76;35.57;99358.59;4481257;31;20155;-73
2022/05/20 11:09:12;;;;;;;5.15;2.40;;;;;;;27.21;34.16;99349.25;4475780;32;20546;-73
2022/05/20 11:11:41;;;;;;;5.00;2.80;;;;;;;27.18;31.94;99349.72;4473157;32;20133;-71
2022/05/20 11:14:35;;;;;;;5.87;2.28;;;;;;;27.33;33.24;99350.12;4479454;32;20107;-71
2022/05/20 11:17:21;;;;;;;;;;;;;;;27.46;32.26;99345.53;4477880;32;20124;-72
2022/05/20 11:19:59;;;;;;;9.15;2.75;;;;;;;27.18;32.37;99338.97;4473748;32;19984;-72
2022/05/20 11:23:01;;;;;;;6.72;2.47;;;;;;;27.43;33.68;99334.22;4479280;32;20100;-72
2022/05/20 11:25:31;;;;;;;4.40;2.37;;;;;;;27.35;32.13;99333.72;4482406;32;20579;-73
2022/05/20 11:28:10;;;;;;;5.68;2.80;;;;;;;27.29;33.85;99335.44;4481721;31;20108;-72
2022/05/20 11:31:23;;;;;;;3.47;2.37;;;;;;;27.56;34.63;99325.06;4478071;31;20151;-72
2022/05/20 11:33:54;;;;;;;4.03;2.10;;;;;;;27.87;32.01;99338.37;4446948;32;20089;-72
2022/05/20 11:37:00;;;;;;;7.07;2.33;;;;;;;27.33;32.95;99325.91;4447889;32;20125;-73
2022/05/20 11:39:42;;;;;;;3.58;2.20;;;;;;;27.38;33.29;99315.25;4400827;32;20168;-73
2022/05/20 11:42:25;;;;;;;6.07;2.58;;;;;;;27.22;33.33;99318.59;4400673;32;20177;-73
2022/05/20 11:45:15;;;;;;;5.30;2.60;;;;;;;26.81;33.17;99313.03;4402077;32;20098;-73
2022/05/20 11:48:14;;;;;;;4.00;2.47;;;;;;;27.00;34.72;99310.28;4401419;32;20594;-74
2022/05/20 11:50:50;;;;;;;7.12;2.47;;;;;;;26.82;34.02;99308.50;4400919;32;20114;-73
2022/05/20 11:53:34;;;;;;;4.65;2.33;;;;;;;27.02;35.85;99297.41;4393668;32;20161;-71
2022/05/20 11:56:07;;;;;;;5.55;2.40;;;;;;;27.01;33.62;99301.97;4395814;32;20106;-72
2022/05/20 11:58:42;;;;;;;4.32;2.28;;;;;;;26.90;33.21;99295.53;4392061;32;107204;-72
2022/05/20 12:01:09;;;;;;;4.12;2.12;;;;;;;27.49;35.61;99300.13;4386918;32;20106;-73
2022/05/20 12:06:25;;;;;;;3.60;2.15;;;;;;;27.77;32.76;99294.03;4397094;32;20478;-73
2022/05/20 12:08:55;;;;;;;4.50;2.20;;;;;;;27.46;32.63;99297.91;4392782;32;20163;-72
2022/05/20 12:11:25;;;;;;;4.50;2.50;;;;;;;27.52;33.28;99283.53;4432525;32;20124;-73
2022/05/20 12:13:58;;;;;;;3.58;2.05;;;;;;;28.06;33.76;99280.62;4433754;32;20148;-73
2022/05/20 12:16:25;;;;;;;7.47;2.50;;;;;;;27.97;32.57;99277.50;4448304;32;20088;-73
2022/05/20 12:24:38;;;;;;;6.03;2.30;;;;;;;28.32;32.70;99278.44;4481207;32;20135;-73
2022/05/20 12:27:12;;;;;;;3.20;2.00;;;;;;;28.61;33.76;99275.75;4482123;31;20516;-73
2022/05/20 12:29:39;;;;;;;6.32;2.12;;;;;;;28.96;32.93;99266.59;4477918;32;20112;-73
2022/05/20 12:32:15;;;;;;;4.47;2.37;;;;;;;28.67;31.12;99262.09;4483722;31;20096;-72
2022/05/20 12:35:12;;;;;;;6.20;2.40;;;;;;;28.95;32.80;99265.78;4482728;32;20084;-72
2022/05/20 12:37:42;;;;;;;6.78;2.53;;;;;;;29.15;31.09;99259.88;4434183;32;20125;-72
2022/05/20 12:40:26;;;;;;;6.25;2.70;;;;;;;29.42;33.48;99253.00;4433992;32;20123;-73
2022/05/20 12:43:09;;;;;;;2.85;2.20;;;;;;;29.76;33.92;99251.00;4432839;32;20166;-72